Time;durP1;ratioP1;P1;durP2;ratioP2;P2;SDS_P1;SDS_P2;PMS_P1;PMS_P2;Temp;Humidity;BMP_temperature;BMP_pressure;BME280_temperature;BME280_humidity;BME280_pressure;Samples;Min_cycle;Max_cycle;Signal;HPM_P1;HPM_P2
2021/03/27 00:43:56;;;;;;;27.13;18.40;;;;;;;5.84;73.00;100907.78;20816773;27;20971;-66
2021/03/27 00:54:18;;;;;;;35.83;23.37;;;;;;;5.79;75.43;100884.13;20803611;28;20228;-67
2021/03/27 01:04:22;;;;;;;36.20;24.83;;;;;;;5.85;74.17;100883.03;20802803;28;20231;-68
2021/03/27 01:14:27;;;;;;;22.40;17.43;;;;;;;6.02;72.92;100899.22;20786783;28;20598;-66
2021/03/27 01:44:49;;;;;;;29.47;20.17;;;;;;;6.14;75.05;100859.03;20932408;27;877168;-58
2021/03/27 02:05:06;;;;;;;21.97;14.23;;;;;;;5.58;76.24;100847.78;20806866;28;20561;-59
2021/03/27 02:15:07;;;;;;;28.33;18.63;;;;;;;5.35;77.90;100845.94;20809841;28;20225;-64
2021/03/27 02:55:04;;;;;;;24.53;17.23;;;;;;;5.16;79.31;100799.00;20886748;27;20566;-59
2021/03/27 03:05:20;;;;;;;26.53;18.60;;;;;;;5.10;80.23;100786.84;20884404;28;20231;-61
2021/03/27 03:25:20;;;;;;;30.07;19.73;;;;;;;4.94;80.12;100781.25;20816950;28;20560;-58
2021/03/27 03:45:37;;;;;;;32.60;22.43;;;;;;;4.84;81.81;100766.56;20848592;27;20551;-59
2021/03/27 04:05:38;;;;;;;48.80;31.30;;;;;;;4.84;82.67;100741.91;20892507;27;20554;-68
2021/03/27 04:45:32;;;;;;;36.17;24.30;;;;;;;4.94;81.08;100690.47;20894277;27;20542;-60
2021/03/27 05:15:46;;;;;;;42.43;28.80;;;;;;;6.60;76.22;100732.63;21041692;27;20326;-60
2021/03/27 05:25:58;;;;;;;50.90;35.30;;;;;;;6.75;74.58;100717.88;20955805;28;20804;-59
2021/03/27 06:25:58;;;;;;;52.77;36.30;;;;;;;7.67;74.76;100720.84;20887472;27;20916;-59
2021/03/27 07:06:12;;;;;;;46.70;34.40;;;;;;;8.89;70.17;100714.94;20861617;28;20311;-60
2021/03/27 07:16:30;;;;;;;50.23;35.57;;;;;;;9.26;69.70;100703.25;20867545;28;20239;-58
2021/03/27 07:26:53;;;;;;;46.00;33.97;;;;;;;9.80;67.65;100699.41;20861710;28;20279;-61
2021/03/27 07:37:28;;;;;;;45.87;33.00;;;;;;;10.24;65.32;100680.97;20860382;28;20243;-58
2021/03/27 07:57:53;;;;;;;48.70;36.63;;;;;;;11.63;62.68;100677.91;21033400;27;20566;-65
2021/03/27 08:08:44;;;;;;;52.23;38.57;;;;;;;12.29;61.93;100678.13;21039004;28;20253;-67
2021/03/27 08:19:13;;;;;;;56.60;42.37;;;;;;;12.41;62.24;100677.31;20994924;28;20222;-67
2021/03/27 08:29:45;;;;;;;48.63;36.57;;;;;;;12.60;60.79;100668.91;21004064;28;20235;-67
2021/03/27 08:39:48;;;;;;;39.17;30.83;;;;;;;13.44;62.41;100668.50;20955371;28;20230;-68
2021/03/27 08:49:56;;;;;;;46.90;35.40;;;;;;;14.30;59.84;100638.00;20927779;27;20562;-68
2021/03/27 09:00:16;;;;;;;41.57;33.20;;;;;;;14.68;55.79;100627.09;20905326;28;20230;-68
2021/03/27 09:10:44;;;;;;;36.00;26.83;;;;;;;15.35;54.38;100618.28;20913403;28;20703;-68
2021/03/27 09:21:29;;;;;;;32.87;25.20;;;;;;;15.82;52.22;100614.50;20948093;28;20233;-68
2021/03/27 09:31:54;;;;;;;34.77;25.83;;;;;;;16.18;49.28;100606.09;20943715;28;20226;-66
2021/03/27 09:42:06;;;;;;;29.50;23.03;;;;;;;16.48;51.40;100591.91;20958543;28;20231;-68
2021/03/27 09:52:38;;;;;;;26.60;21.37;;;;;;;16.88;49.63;100584.00;20886633;28;20317;-67
2021/03/27 10:02:44;;;;;;;33.00;24.10;;;;;;;17.20;49.87;100574.94;20888734;28;20349;-68
2021/03/27 10:13:11;;;;;;;32.63;25.23;;;;;;;17.41;47.18;100564.94;20857671;28;20231;-68
2021/03/27 10:23:37;;;;;;;30.03;22.10;;;;;;;17.85;45.44;100560.16;20794397;28;20254;-68
2021/03/27 10:33:40;;;;;;;29.03;22.60;;;;;;;18.07;48.41;100562.59;20790586;28;20249;-67
2021/03/27 10:44:02;;;;;;;27.47;21.30;;;;;;;18.08;45.91;100541.84;20807230;28;20265;-67
2021/03/27 10:54:35;;;;;;;33.93;21.70;;;;;;;18.06;44.24;100523.06;20783821;28;20234;-68
2021/03/27 11:04:43;;;;;;;27.50;20.30;;;;;;;18.23;44.80;100527.75;20632440;28;20245;-67
2021/03/27 11:14:46;;;;;;;24.43;18.13;;;;;;;18.46;46.08;100503.16;20662433;28;20226;-67
2021/03/27 11:25:25;;;;;;;28.10;20.57;;;;;;;18.46;43.94;100504.00;20709029;28;20264;-67
2021/03/27 11:35:31;;;;;;;25.17;18.80;;;;;;;18.76;45.18;100489.44;20423548;28;20245;-67
2021/03/27 11:45:35;;;;;;;26.80;19.43;;;;;;;19.10;45.54;100478.91;20541885;28;20227;-67
2021/03/27 11:55:49;;;;;;;25.10;19.93;;;;;;;19.11;42.53;100450.88;20517347;28;20711;-67
2021/03/27 12:06:09;;;;;;;22.97;18.17;;;;;;;19.23;42.15;100465.03;20694404;28;20298;-66
2021/03/27 12:16:47;;;;;;;20.37;17.00;;;;;;;19.30;43.88;100466.16;20877913;28;20238;-61
2021/03/27 12:27:14;;;;;;;20.43;16.23;;;;;;;19.31;41.20;100463.31;20867790;28;20224;-64
2021/03/27 12:37:20;;;;;;;18.93;13.43;;;;;;;19.71;44.16;100452.09;20886575;28;20235;-63
2021/03/27 12:47:36;;;;;;;12.00;9.10;;;;;;;19.93;42.10;100453.47;20873681;28;20226;-62
2021/03/27 12:57:39;;;;;;;14.73;10.23;;;;;;;20.33;41.94;100461.09;20896310;28;20798;-59
2021/03/27 13:08:11;;;;;;;13.77;10.50;;;;;;;20.43;39.04;100413.09;20881601;28;20237;-59
2021/03/27 13:18:21;;;;;;;15.03;10.63;;;;;;;20.77;39.84;100452.97;20976497;28;20715;-61
2021/03/27 13:29:06;;;;;;;16.20;11.30;;;;;;;20.33;41.40;100454.84;20956881;28;20686;-64
2021/03/27 13:39:29;;;;;;;16.20;10.00;;;;;;;20.18;39.90;100450.97;20919105;28;20583;-60
2021/03/27 13:49:35;;;;;;;16.73;11.97;;;;;;;20.11;40.52;100439.94;20904732;28;20223;-61
2021/03/27 13:59:45;;;;;;;14.90;11.17;;;;;;;19.90;41.75;100445.69;20889156;28;20237;-60
2021/03/27 14:09:57;;;;;;;18.40;11.17;;;;;;;19.18;43.21;100451.13;20895785;28;20276;-61
2021/03/27 14:20:35;;;;;;;17.07;10.87;;;;;;;18.73;42.44;100441.06;20903486;28;20226;-62
2021/03/27 14:30:45;;;;;;;10.67;8.20;;;;;;;18.86;43.33;100438.88;20899917;28;20377;-63
2021/03/27 14:41:22;;;;;;;18.93;7.60;;;;;;;18.16;42.38;100361.84;20881767;28;20239;-64
2021/03/27 14:51:35;;;;;;;24.77;13.07;;;;;;;18.19;45.23;100472.31;20888765;28;20244;-63
2021/03/27 15:02:06;;;;;;;17.30;11.13;;;;;;;17.17;47.16;100491.59;20791015;28;20227;-62
2021/03/27 15:12:25;;;;;;;10.33;9.23;;;;;;;15.87;55.29;100504.66;20816611;28;20228;-63
2021/03/27 15:22:26;;;;;;;20.90;12.60;;;;;;;14.66;62.59;100561.03;20888075;28;20229;-61
2021/03/27 15:32:47;;;;;;;27.70;14.27;;;;;;;12.98;78.73;100608.22;20920043;28;20659;-60
2021/03/27 15:42:52;;;;;;;29.53;13.67;;;;;;;12.25;86.78;100652.53;20900432;28;20237;-60
2021/03/27 15:52:59;;;;;;;17.73;12.80;;;;;;;11.80;86.28;100659.91;20910638;28;20238;-61
2021/03/27 16:03:12;;;;;;;22.63;17.33;;;;;;;11.40;91.08;100701.59;20903441;28;20245;-61
2021/03/27 16:13:30;;;;;;;12.13;10.83;;;;;;;10.90;92.36;100736.69;20853154;28;20226;-61
2021/03/27 16:24:05;;;;;;;8.60;7.70;;;;;;;10.49;95.62;100740.91;20915918;28;20211;-62
2021/03/27 16:34:38;;;;;;;9.90;8.00;;;;;;;10.27;95.86;100755.44;20883612;28;20757;-60
2021/03/27 16:54:52;;;;;;;10.87;8.87;;;;;;;9.57;100.00;100817.03;20857722;27;20605;-61
2021/03/27 17:05:00;;;;;;;13.30;9.30;;;;;;;9.34;100.00;100823.53;20867782;28;20269;-64
2021/03/27 17:15:14;;;;;;;12.87;7.03;;;;;;;9.25;100.00;100835.53;20849812;28;20226;-62
2021/03/27 17:25:25;;;;;;;10.30;8.70;;;;;;;9.12;100.00;100860.19;20825479;28;20404;-65
2021/03/27 17:35:32;;;;;;;13.73;10.00;;;;;;;9.05;100.00;100872.09;20780708;28;20226;-66
2021/03/27 17:46:05;;;;;;;22.63;15.40;;;;;;;8.96;100.00;100895.53;20807925;28;20253;-66
2021/03/27 17:56:13;;;;;;;10.53;7.83;;;;;;;8.85;96.60;100897.84;20615979;28;20257;-64
2021/03/27 18:16:39;;;;;;;16.33;10.37;;;;;;;8.73;98.31;100932.16;20911785;27;20645;-64
2021/03/27 18:27:01;;;;;;;9.90;7.60;;;;;;;8.62;98.68;100936.19;20940313;28;20237;-64
2021/03/27 18:37:05;;;;;;;13.00;10.87;;;;;;;8.55;99.14;100960.50;21036288;28;20239;-63
2021/03/27 18:57:02;;;;;;;12.57;10.33;;;;;;;8.52;98.68;100997.88;20753120;28;20606;-62
2021/03/27 19:07:27;;;;;;;11.63;9.73;;;;;;;8.38;97.21;100990.50;20754680;28;21091;-64
2021/03/27 19:17:31;;;;;;;9.90;8.40;;;;;;;7.97;97.53;100997.59;20716595;28;20234;-65
2021/03/27 19:47:39;;;;;;;56.87;29.17;;;;;;;6.95;100.00;101016.81;20867702;27;20565;-68
2021/03/27 19:57:54;;;;;;;26.53;14.87;;;;;;;6.61;100.00;101011.91;20823499;28;20235;-62
2021/03/27 20:18:23;;;;;;;14.33;9.73;;;;;;;5.81;100.00;101045.59;20835365;27;21059;-60
2021/03/27 20:29:03;;;;;;;11.63;9.53;;;;;;;5.51;100.00;101062.47;20777734;28;20231;-66
2021/03/27 20:39:20;;;;;;;14.10;10.70;;;;;;;5.25;100.00;101066.81;20780175;28;20247;-63
2021/03/27 20:49:56;;;;;;;18.93;12.70;;;;;;;5.09;100.00;101076.09;20753231;28;20318;-60
2021/03/27 21:40:04;;;;;;;25.57;14.87;;;;;;;5.13;100.00;101120.09;20742581;28;20638;-60
2021/03/27 21:50:25;;;;;;;14.80;11.40;;;;;;;5.21;100.00;101128.66;20707704;28;20240;-61
2021/03/27 23:00:17;;;;;;;11.17;7.73;;;;;;;6.07;94.33;101201.94;20950650;27;20575;-61
2021/03/27 23:20:31;;;;;;;9.47;6.40;;;;;;;5.66;95.04;101216.44;20875026;27;20650;-62
2021/03/27 23:30:34;;;;;;;14.23;6.43;;;;;;;5.58;95.29;101220.22;20864005;28;20239;-63
2021/03/27 23:50:47;;;;;;;7.40;5.80;;;;;;;5.62;92.06;101251.00;21030089;27;20892;-61
